sensor_id;sensor_type;location;lat;lon;timestamp;P1;durP1;ratioP1;P2;durP2;ratioP2
65086;SDS011;52094;51.234;-2.310;2022-10-19T00:02:42;6.10;;;2.13;;
65086;SDS011;52094;51.234;-2.310;2022-10-19T00:06:29;8.65;;;2.60;;
65086;SDS011;52094;51.234;-2.310;2022-10-19T00:10:12;10.05;;;3.25;;
65086;SDS011;52094;51.234;-2.310;2022-10-19T00:13:55;6.50;;;2.45;;
65086;SDS011;52094;51.234;-2.310;2022-10-19T00:17:38;11.10;;;3.45;;
65086;SDS011;52094;51.234;-2.310;2022-10-19T00:21:20;7.38;;;2.58;;
65086;SDS011;52094;51.234;-2.310;2022-10-19T00:25:03;6.07;;;2.28;;
65086;SDS011;52094;51.234;-2.310;2022-10-19T00:28:46;10.90;;;2.50;;
65086;SDS011;52094;51.234;-2.310;2022-10-19T00:32:36;9.18;;;3.20;;
65086;SDS011;52094;51.234;-2.310;2022-10-19T00:40:05;8.63;;;2.55;;
65086;SDS011;52094;51.234;-2.310;2022-10-19T00:43:56;6.22;;;2.17;;
65086;SDS011;52094;51.234;-2.310;2022-10-19T00:47:47;5.15;;;2.10;;
65086;SDS011;52094;51.234;-2.310;2022-10-19T00:51:31;8.85;;;2.50;;
65086;SDS011;52094;51.234;-2.310;2022-10-19T00:55:15;7.40;;;2.63;;
65086;SDS011;52094;51.234;-2.310;2022-10-19T00:58:57;7.05;;;2.05;;
65086;SDS011;52094;51.234;-2.310;2022-10-19T01:02:40;6.18;;;2.30;;
65086;SDS011;52094;51.234;-2.310;2022-10-19T01:06:22;4.68;;;1.88;;
65086;SDS011;52094;51.234;-2.310;2022-10-19T01:10:05;6.22;;;2.75;;
65086;SDS011;52094;51.234;-2.310;2022-10-19T01:25:54;7.28;;;2.78;;
65086;SDS011;52094;51.234;-2.310;2022-10-19T01:38:14;9.30;;;2.72;;
65086;SDS011;52094;51.234;-2.310;2022-10-19T01:42:05;9.48;;;3.28;;
65086;SDS011;52094;51.234;-2.310;2022-10-19T01:46:05;10.00;;;2.78;;
65086;SDS011;52094;51.234;-2.310;2022-10-19T01:50:42;8.68;;;3.03;;
65086;SDS011;52094;51.234;-2.310;2022-10-19T01:54:29;7.75;;;2.60;;
65086;SDS011;52094;51.234;-2.310;2022-10-19T01:58:20;7.70;;;2.90;;
65086;SDS011;52094;51.234;-2.310;2022-10-19T02:02:11;11.98;;;3.42;;
65086;SDS011;52094;51.234;-2.310;2022-10-19T02:05:55;9.02;;;3.05;;
65086;SDS011;52094;51.234;-2.310;2022-10-19T02:09:38;6.70;;;3.13;;
65086;SDS011;52094;51.234;-2.310;2022-10-19T02:13:21;6.20;;;2.40;;
65086;SDS011;52094;51.234;-2.310;2022-10-19T02:17:07;8.88;;;2.35;;
65086;SDS011;52094;51.234;-2.310;2022-10-19T02:20:51;7.15;;;2.63;;
65086;SDS011;52094;51.234;-2.310;2022-10-19T02:24:34;9.65;;;2.83;;
65086;SDS011;52094;51.234;-2.310;2022-10-19T02:28:16;8.40;;;3.45;;
65086;SDS011;52094;51.234;-2.310;2022-10-19T02:31:59;8.77;;;3.30;;
65086;SDS011;52094;51.234;-2.310;2022-10-19T02:35:42;10.82;;;3.85;;
65086;SDS011;52094;51.234;-2.310;2022-10-19T02:39:24;9.75;;;3.28;;
65086;SDS011;52094;51.234;-2.310;2022-10-19T02:43:09;10.60;;;3.65;;
65086;SDS011;52094;51.234;-2.310;2022-10-19T02:47:02;8.38;;;2.90;;
65086;SDS011;52094;51.234;-2.310;2022-10-19T02:50:55;9.23;;;3.10;;
65086;SDS011;52094;51.234;-2.310;2022-10-19T02:54:37;9.88;;;2.45;;
65086;SDS011;52094;51.234;-2.310;2022-10-19T02:58:21;8.18;;;2.80;;
65086;SDS011;52094;51.234;-2.310;2022-10-19T03:02:03;11.32;;;3.17;;
65086;SDS011;52094;51.234;-2.310;2022-10-19T03:05:45;7.45;;;2.35;;
65086;SDS011;52094;51.234;-2.310;2022-10-19T03:09:27;7.07;;;2.25;;
65086;SDS011;52094;51.234;-2.310;2022-10-19T03:13:09;9.23;;;2.67;;
65086;SDS011;52094;51.234;-2.310;2022-10-19T03:16:52;10.18;;;2.33;;
65086;SDS011;52094;51.234;-2.310;2022-10-19T03:20:34;9.63;;;2.67;;
65086;SDS011;52094;51.234;-2.310;2022-10-19T03:24:16;10.52;;;3.33;;
65086;SDS011;52094;51.234;-2.310;2022-10-19T03:27:58;6.78;;;2.38;;
65086;SDS011;52094;51.234;-2.310;2022-10-19T03:31:43;11.48;;;3.55;;
65086;SDS011;52094;51.234;-2.310;2022-10-19T03:35:25;9.45;;;2.92;;
65086;SDS011;52094;51.234;-2.310;2022-10-19T03:39:09;8.27;;;2.92;;
65086;SDS011;52094;51.234;-2.310;2022-10-19T03:42:54;7.82;;;2.22;;
65086;SDS011;52094;51.234;-2.310;2022-10-19T03:46:36;9.65;;;2.00;;
65086;SDS011;52094;51.234;-2.310;2022-10-19T03:50:19;8.57;;;3.00;;
65086;SDS011;52094;51.234;-2.310;2022-10-19T03:54:10;7.40;;;2.45;;
65086;SDS011;52094;51.234;-2.310;2022-10-19T03:57:55;9.73;;;2.33;;
65086;SDS011;52094;51.234;-2.310;2022-10-19T04:01:39;8.30;;;2.10;;
65086;SDS011;52094;51.234;-2.310;2022-10-19T04:05:23;8.43;;;2.50;;
65086;SDS011;52094;51.234;-2.310;2022-10-19T04:09:14;10.48;;;2.97;;
65086;SDS011;52094;51.234;-2.310;2022-10-19T04:12:58;5.03;;;1.98;;
65086;SDS011;52094;51.234;-2.310;2022-10-19T04:16:40;7.60;;;2.20;;
65086;SDS011;52094;51.234;-2.310;2022-10-19T04:20:23;7.57;;;2.38;;
65086;SDS011;52094;51.234;-2.310;2022-10-19T04:24:12;8.52;;;2.90;;
65086;SDS011;52094;51.234;-2.310;2022-10-19T04:27:56;7.00;;;2.60;;
65086;SDS011;52094;51.234;-2.310;2022-10-19T04:31:38;6.97;;;2.35;;
65086;SDS011;52094;51.234;-2.310;2022-10-19T04:35:20;7.63;;;2.22;;
65086;SDS011;52094;51.234;-2.310;2022-10-19T04:39:03;6.15;;;2.40;;
65086;SDS011;52094;51.234;-2.310;2022-10-19T04:42:45;7.82;;;2.47;;
65086;SDS011;52094;51.234;-2.310;2022-10-19T04:46:28;5.97;;;2.30;;
65086;SDS011;52094;51.234;-2.310;2022-10-19T04:50:11;7.85;;;2.42;;
65086;SDS011;52094;51.234;-2.310;2022-10-19T04:53:56;5.50;;;2.17;;
65086;SDS011;52094;51.234;-2.310;2022-10-19T04:57:40;7.50;;;2.60;;
65086;SDS011;52094;51.234;-2.310;2022-10-19T05:01:23;6.72;;;2.20;;
65086;SDS011;52094;51.234;-2.310;2022-10-19T05:05:09;8.52;;;2.15;;
65086;SDS011;52094;51.234;-2.310;2022-10-19T05:08:52;8.52;;;2.40;;
65086;SDS011;52094;51.234;-2.310;2022-10-19T05:12:35;6.20;;;2.08;;
65086;SDS011;52094;51.234;-2.310;2022-10-19T05:16:19;8.57;;;2.28;;
65086;SDS011;52094;51.234;-2.310;2022-10-19T05:20:03;6.18;;;1.88;;
65086;SDS011;52094;51.234;-2.310;2022-10-19T05:23:45;7.47;;;2.00;;
65086;SDS011;52094;51.234;-2.310;2022-10-19T05:27:28;7.80;;;2.10;;
65086;SDS011;52094;51.234;-2.310;2022-10-19T05:31:11;6.72;;;2.20;;
65086;SDS011;52094;51.234;-2.310;2022-10-19T05:34:58;9.00;;;2.53;;
65086;SDS011;52094;51.234;-2.310;2022-10-19T05:38:40;5.90;;;2.00;;
65086;SDS011;52094;51.234;-2.310;2022-10-19T05:42:23;7.10;;;2.35;;
65086;SDS011;52094;51.234;-2.310;2022-10-19T05:46:06;8.45;;;2.50;;
65086;SDS011;52094;51.234;-2.310;2022-10-19T05:49:50;9.13;;;3.03;;
65086;SDS011;52094;51.234;-2.310;2022-10-19T05:53:33;7.85;;;2.40;;
65086;SDS011;52094;51.234;-2.310;2022-10-19T05:57:15;6.63;;;2.55;;
65086;SDS011;52094;51.234;-2.310;2022-10-19T06:00:58;6.72;;;2.55;;
65086;SDS011;52094;51.234;-2.310;2022-10-19T06:04:41;6.95;;;3.15;;
65086;SDS011;52094;51.234;-2.310;2022-10-19T06:08:41;6.13;;;2.60;;
65086;SDS011;52094;51.234;-2.310;2022-10-19T06:12:23;7.38;;;3.03;;
65086;SDS011;52094;51.234;-2.310;2022-10-19T06:16:06;7.53;;;3.05;;
65086;SDS011;52094;51.234;-2.310;2022-10-19T06:19:49;9.23;;;2.90;;
65086;SDS011;52094;51.234;-2.310;2022-10-19T06:35:52;8.80;;;3.72;;
65086;SDS011;52094;51.234;-2.310;2022-10-19T06:39:34;7.97;;;2.97;;
65086;SDS011;52094;51.234;-2.310;2022-10-19T06:43:16;8.02;;;3.05;;
65086;SDS011;52094;51.234;-2.310;2022-10-19T06:46:58;7.18;;;3.15;;
65086;SDS011;52094;51.234;-2.310;2022-10-19T06:50:41;7.70;;;3.05;;
65086;SDS011;52094;51.234;-2.310;2022-10-19T06:54:23;7.60;;;3.28;;
65086;SDS011;52094;51.234;-2.310;2022-10-19T06:58:05;6.80;;;2.95;;
65086;SDS011;52094;51.234;-2.310;2022-10-19T07:01:48;9.48;;;3.60;;
65086;SDS011;52094;51.234;-2.310;2022-10-19T07:05:30;9.00;;;3.40;;
65086;SDS011;52094;51.234;-2.310;2022-10-19T07:09:12;8.02;;;4.18;;
65086;SDS011;52094;51.234;-2.310;2022-10-19T07:12:54;11.05;;;3.95;;
65086;SDS011;52094;51.234;-2.310;2022-10-19T07:16:37;10.57;;;4.30;;
65086;SDS011;52094;51.234;-2.310;2022-10-19T07:20:19;10.50;;;4.28;;
65086;SDS011;52094;51.234;-2.310;2022-10-19T07:24:01;7.75;;;4.30;;
65086;SDS011;52094;51.234;-2.310;2022-10-19T07:27:43;10.80;;;5.30;;
65086;SDS011;52094;51.234;-2.310;2022-10-19T07:31:26;11.02;;;5.00;;
65086;SDS011;52094;51.234;-2.310;2022-10-19T07:35:10;11.18;;;5.85;;
65086;SDS011;52094;51.234;-2.310;2022-10-19T07:38:52;11.18;;;5.15;;
65086;SDS011;52094;51.234;-2.310;2022-10-19T07:42:35;11.02;;;5.05;;
65086;SDS011;52094;51.234;-2.310;2022-10-19T07:46:22;10.18;;;5.00;;
65086;SDS011;52094;51.234;-2.310;2022-10-19T07:50:06;9.10;;;4.38;;
65086;SDS011;52094;51.234;-2.310;2022-10-19T07:53:49;14.25;;;4.85;;
65086;SDS011;52094;51.234;-2.310;2022-10-19T07:57:31;10.18;;;5.25;;
65086;SDS011;52094;51.234;-2.310;2022-10-19T08:01:17;7.82;;;3.88;;
65086;SDS011;52094;51.234;-2.310;2022-10-19T08:05:01;8.50;;;4.63;;
65086;SDS011;52094;51.234;-2.310;2022-10-19T08:08:50;9.15;;;3.85;;
65086;SDS011;52094;51.234;-2.310;2022-10-19T08:12:34;7.72;;;4.18;;
65086;SDS011;52094;51.234;-2.310;2022-10-19T08:16:23;10.68;;;4.35;;
65086;SDS011;52094;51.234;-2.310;2022-10-19T08:20:20;11.70;;;4.55;;
65086;SDS011;52094;51.234;-2.310;2022-10-19T08:24:03;12.85;;;4.65;;
65086;SDS011;52094;51.234;-2.310;2022-10-19T08:28:00;9.57;;;4.22;;
65086;SDS011;52094;51.234;-2.310;2022-10-19T08:31:43;9.70;;;3.50;;
65086;SDS011;52094;51.234;-2.310;2022-10-19T08:35:26;8.95;;;3.22;;
65086;SDS011;52094;51.234;-2.310;2022-10-19T08:39:10;16.13;;;5.60;;
65086;SDS011;52094;51.234;-2.310;2022-10-19T09:07:26;6.28;;;3.15;;
65086;SDS011;52094;51.234;-2.310;2022-10-19T09:11:28;7.90;;;3.08;;
65086;SDS011;52094;51.234;-2.310;2022-10-19T09:15:26;5.53;;;2.27;;
65086;SDS011;52094;51.234;-2.310;2022-10-19T09:19:28;7.75;;;2.88;;
65086;SDS011;52094;51.234;-2.310;2022-10-19T09:31:10;9.00;;;2.97;;
65086;SDS011;52094;51.234;-2.310;2022-10-19T09:35:04;6.43;;;2.53;;
65086;SDS011;52094;51.234;-2.310;2022-10-19T09:39:00;9.95;;;2.70;;
65086;SDS011;52094;51.234;-2.310;2022-10-19T09:51:51;9.10;;;2.70;;
65086;SDS011;52094;51.234;-2.310;2022-10-19T09:55:42;8.68;;;3.20;;
65086;SDS011;52094;51.234;-2.310;2022-10-19T09:59:32;8.45;;;3.05;;
65086;SDS011;52094;51.234;-2.310;2022-10-19T10:07:05;7.75;;;2.30;;
65086;SDS011;52094;51.234;-2.310;2022-10-19T10:14:54;6.43;;;2.60;;
65086;SDS011;52094;51.234;-2.310;2022-10-19T10:18:42;6.38;;;2.65;;
65086;SDS011;52094;51.234;-2.310;2022-10-19T10:22:31;8.90;;;2.65;;
65086;SDS011;52094;51.234;-2.310;2022-10-19T10:26:17;8.48;;;3.28;;
65086;SDS011;52094;51.234;-2.310;2022-10-19T10:30:05;8.07;;;3.13;;
65086;SDS011;52094;51.234;-2.310;2022-10-19T10:33:59;8.48;;;2.85;;
65086;SDS011;52094;51.234;-2.310;2022-10-19T10:42:10;8.73;;;3.03;;
65086;SDS011;52094;51.234;-2.310;2022-10-19T10:46:18;7.18;;;2.92;;
65086;SDS011;52094;51.234;-2.310;2022-10-19T10:50:43;8.55;;;3.20;;
65086;SDS011;52094;51.234;-2.310;2022-10-19T10:54:20;7.10;;;2.90;;
65086;SDS011;52094;51.234;-2.310;2022-10-19T11:06:22;5.82;;;2.65;;
65086;SDS011;52094;51.234;-2.310;2022-10-19T11:10:10;7.30;;;3.33;;
65086;SDS011;52094;51.234;-2.310;2022-10-19T11:14:25;8.75;;;3.30;;
65086;SDS011;52094;51.234;-2.310;2022-10-19T11:18:14;5.97;;;2.58;;
65086;SDS011;52094;51.234;-2.310;2022-10-19T11:22:09;8.43;;;3.08;;
65086;SDS011;52094;51.234;-2.310;2022-10-19T11:30:12;6.65;;;3.13;;
65086;SDS011;52094;51.234;-2.310;2022-10-19T12:14:47;7.00;;;2.33;;
65086;SDS011;52094;51.234;-2.310;2022-10-19T12:18:35;6.35;;;3.05;;
65086;SDS011;52094;51.234;-2.310;2022-10-19T12:22:27;6.85;;;2.47;;
65086;SDS011;52094;51.234;-2.310;2022-10-19T12:26:13;4.95;;;2.65;;
65086;SDS011;52094;51.234;-2.310;2022-10-19T12:30:01;6.03;;;2.70;;
65086;SDS011;52094;51.234;-2.310;2022-10-19T12:34:09;8.90;;;3.60;;
65086;SDS011;52094;51.234;-2.310;2022-10-19T12:38:21;6.40;;;2.17;;
65086;SDS011;52094;51.234;-2.310;2022-10-19T12:49:57;7.97;;;2.40;;
65086;SDS011;52094;51.234;-2.310;2022-10-19T12:53:44;7.05;;;2.60;;
65086;SDS011;52094;51.234;-2.310;2022-10-19T12:57:29;5.78;;;2.20;;
65086;SDS011;52094;51.234;-2.310;2022-10-19T13:01:22;5.82;;;2.33;;
65086;SDS011;52094;51.234;-2.310;2022-10-19T13:05:17;5.45;;;2.10;;
65086;SDS011;52094;51.234;-2.310;2022-10-19T13:09:05;7.53;;;3.10;;
65086;SDS011;52094;51.234;-2.310;2022-10-19T13:12:51;6.88;;;2.55;;
65086;SDS011;52094;51.234;-2.310;2022-10-19T13:24:14;5.70;;;2.53;;
65086;SDS011;52094;51.234;-2.310;2022-10-19T13:31:55;6.20;;;2.80;;
65086;SDS011;52094;51.234;-2.310;2022-10-19T13:36:16;7.75;;;2.90;;
65086;SDS011;52094;51.234;-2.310;2022-10-19T13:39:59;7.32;;;2.78;;
65086;SDS011;52094;51.234;-2.310;2022-10-19T13:48:09;6.68;;;2.78;;
65086;SDS011;52094;51.234;-2.310;2022-10-19T13:52:07;5.57;;;2.50;;
65086;SDS011;52094;51.234;-2.310;2022-10-19T13:56:01;7.25;;;2.45;;
65086;SDS011;52094;51.234;-2.310;2022-10-19T14:08:29;5.78;;;2.28;;
65086;SDS011;52094;51.234;-2.310;2022-10-19T14:12:20;6.82;;;2.75;;
65086;SDS011;52094;51.234;-2.310;2022-10-19T14:16:14;5.22;;;2.85;;
65086;SDS011;52094;51.234;-2.310;2022-10-19T14:19:59;5.18;;;2.10;;
65086;SDS011;52094;51.234;-2.310;2022-10-19T14:23:41;8.05;;;2.17;;
65086;SDS011;52094;51.234;-2.310;2022-10-19T14:27:23;6.43;;;2.33;;
65086;SDS011;52094;51.234;-2.310;2022-10-19T14:31:10;6.35;;;2.58;;
65086;SDS011;52094;51.234;-2.310;2022-10-19T14:38:52;6.25;;;2.10;;
65086;SDS011;52094;51.234;-2.310;2022-10-19T14:42:42;9.63;;;2.83;;
65086;SDS011;52094;51.234;-2.310;2022-10-19T14:46:27;5.65;;;2.42;;
65086;SDS011;52094;51.234;-2.310;2022-10-19T14:50:14;5.35;;;2.28;;
65086;SDS011;52094;51.234;-2.310;2022-10-19T14:53:58;5.80;;;2.42;;
65086;SDS011;52094;51.234;-2.310;2022-10-19T14:57:56;8.85;;;2.83;;
65086;SDS011;52094;51.234;-2.310;2022-10-19T15:01:38;5.95;;;2.58;;
65086;SDS011;52094;51.234;-2.310;2022-10-19T15:05:25;6.45;;;2.33;;
65086;SDS011;52094;51.234;-2.310;2022-10-19T15:09:15;6.68;;;2.58;;
65086;SDS011;52094;51.234;-2.310;2022-10-19T15:13:25;6.78;;;2.28;;
65086;SDS011;52094;51.234;-2.310;2022-10-19T15:21:13;4.53;;;2.08;;
65086;SDS011;52094;51.234;-2.310;2022-10-19T15:28:47;5.55;;;2.40;;
65086;SDS011;52094;51.234;-2.310;2022-10-19T15:32:36;4.53;;;2.00;;
65086;SDS011;52094;51.234;-2.310;2022-10-19T15:36:20;4.97;;;2.20;;
65086;SDS011;52094;51.234;-2.310;2022-10-19T15:40:17;5.47;;;2.00;;
65086;SDS011;52094;51.234;-2.310;2022-10-19T15:44:05;7.25;;;2.42;;
65086;SDS011;52094;51.234;-2.310;2022-10-19T15:52:17;6.18;;;2.33;;
65086;SDS011;52094;51.234;-2.310;2022-10-19T15:56:00;6.00;;;2.35;;
65086;SDS011;52094;51.234;-2.310;2022-10-19T15:59:42;5.88;;;2.88;;
65086;SDS011;52094;51.234;-2.310;2022-10-19T16:03:24;6.13;;;2.30;;
65086;SDS011;52094;51.234;-2.310;2022-10-19T16:07:07;4.47;;;2.05;;
65086;SDS011;52094;51.234;-2.310;2022-10-19T16:11:03;7.25;;;2.40;;
65086;SDS011;52094;51.234;-2.310;2022-10-19T16:14:45;6.22;;;2.70;;
65086;SDS011;52094;51.234;-2.310;2022-10-19T16:18:30;6.72;;;2.60;;
65086;SDS011;52094;51.234;-2.310;2022-10-19T16:22:44;7.10;;;2.28;;
65086;SDS011;52094;51.234;-2.310;2022-10-19T16:26:35;6.93;;;2.15;;
65086;SDS011;52094;51.234;-2.310;2022-10-19T16:30:17;6.22;;;2.67;;
65086;SDS011;52094;51.234;-2.310;2022-10-19T16:34:02;7.72;;;2.20;;
65086;SDS011;52094;51.234;-2.310;2022-10-19T16:37:45;6.35;;;2.30;;
65086;SDS011;52094;51.234;-2.310;2022-10-19T16:41:27;7.10;;;2.72;;
65086;SDS011;52094;51.234;-2.310;2022-10-19T16:45:11;6.95;;;2.60;;
65086;SDS011;52094;51.234;-2.310;2022-10-19T16:48:53;7.25;;;2.28;;
65086;SDS011;52094;51.234;-2.310;2022-10-19T16:52:36;6.07;;;2.30;;
65086;SDS011;52094;51.234;-2.310;2022-10-19T16:56:19;6.95;;;2.28;;
65086;SDS011;52094;51.234;-2.310;2022-10-19T17:00:02;9.38;;;2.60;;
65086;SDS011;52094;51.234;-2.310;2022-10-19T17:03:46;6.60;;;2.90;;
65086;SDS011;52094;51.234;-2.310;2022-10-19T17:07:29;6.07;;;2.55;;
65086;SDS011;52094;51.234;-2.310;2022-10-19T17:11:19;8.05;;;2.58;;
65086;SDS011;52094;51.234;-2.310;2022-10-19T17:15:03;7.57;;;2.78;;
65086;SDS011;52094;51.234;-2.310;2022-10-19T17:19:06;6.93;;;2.90;;
65086;SDS011;52094;51.234;-2.310;2022-10-19T17:22:50;7.78;;;2.95;;
65086;SDS011;52094;51.234;-2.310;2022-10-19T17:26:38;7.38;;;2.97;;
65086;SDS011;52094;51.234;-2.310;2022-10-19T17:30:22;7.15;;;2.97;;
65086;SDS011;52094;51.234;-2.310;2022-10-19T17:34:07;6.90;;;3.15;;
65086;SDS011;52094;51.234;-2.310;2022-10-19T17:37:51;9.15;;;3.33;;
65086;SDS011;52094;51.234;-2.310;2022-10-19T17:41:36;7.65;;;2.83;;
65086;SDS011;52094;51.234;-2.310;2022-10-19T17:45:18;12.40;;;3.58;;
65086;SDS011;52094;51.234;-2.310;2022-10-19T17:49:01;12.23;;;4.18;;
65086;SDS011;52094;51.234;-2.310;2022-10-19T17:52:44;8.38;;;3.13;;
65086;SDS011;52094;51.234;-2.310;2022-10-19T17:56:26;6.43;;;3.00;;
65086;SDS011;52094;51.234;-2.310;2022-10-19T18:00:09;10.95;;;3.55;;
65086;SDS011;52094;51.234;-2.310;2022-10-19T18:03:52;6.38;;;3.08;;
65086;SDS011;52094;51.234;-2.310;2022-10-19T18:07:34;7.78;;;3.40;;
65086;SDS011;52094;51.234;-2.310;2022-10-19T18:11:19;7.30;;;3.88;;
65086;SDS011;52094;51.234;-2.310;2022-10-19T18:15:02;10.20;;;4.30;;
65086;SDS011;52094;51.234;-2.310;2022-10-19T18:18:46;8.32;;;4.35;;
65086;SDS011;52094;51.234;-2.310;2022-10-19T18:22:32;8.57;;;3.95;;
65086;SDS011;52094;51.234;-2.310;2022-10-19T18:34:11;10.48;;;4.35;;
65086;SDS011;52094;51.234;-2.310;2022-10-19T18:37:55;11.70;;;5.20;;
65086;SDS011;52094;51.234;-2.310;2022-10-19T18:41:38;9.45;;;5.13;;
65086;SDS011;52094;51.234;-2.310;2022-10-19T18:45:21;9.23;;;4.50;;
65086;SDS011;52094;51.234;-2.310;2022-10-19T18:49:04;11.00;;;4.72;;
65086;SDS011;52094;51.234;-2.310;2022-10-19T18:52:48;9.98;;;5.43;;
65086;SDS011;52094;51.234;-2.310;2022-10-19T18:56:33;9.30;;;5.30;;
65086;SDS011;52094;51.234;-2.310;2022-10-19T19:00:17;10.73;;;5.32;;
65086;SDS011;52094;51.234;-2.310;2022-10-19T19:04:03;10.73;;;4.85;;
65086;SDS011;52094;51.234;-2.310;2022-10-19T19:07:48;15.43;;;5.67;;
65086;SDS011;52094;51.234;-2.310;2022-10-19T19:11:31;10.88;;;5.82;;
65086;SDS011;52094;51.234;-2.310;2022-10-19T19:15:17;12.52;;;5.25;;
65086;SDS011;52094;51.234;-2.310;2022-10-19T19:19:00;11.77;;;5.68;;
65086;SDS011;52094;51.234;-2.310;2022-10-19T19:22:42;10.90;;;5.47;;
65086;SDS011;52094;51.234;-2.310;2022-10-19T19:26:25;8.85;;;5.22;;
65086;SDS011;52094;51.234;-2.310;2022-10-19T19:30:10;9.70;;;5.53;;
65086;SDS011;52094;51.234;-2.310;2022-10-19T19:33:52;10.60;;;6.10;;
65086;SDS011;52094;51.234;-2.310;2022-10-19T19:37:34;11.43;;;5.75;;
65086;SDS011;52094;51.234;-2.310;2022-10-19T19:41:17;10.90;;;5.32;;
65086;SDS011;52094;51.234;-2.310;2022-10-19T19:45:00;12.45;;;6.78;;
65086;SDS011;52094;51.234;-2.310;2022-10-19T19:48:44;13.70;;;6.07;;
65086;SDS011;52094;51.234;-2.310;2022-10-19T19:57:56;11.45;;;5.90;;
65086;SDS011;52094;51.234;-2.310;2022-10-19T20:01:39;11.13;;;5.53;;
65086;SDS011;52094;51.234;-2.310;2022-10-19T20:05:22;10.98;;;5.53;;
65086;SDS011;52094;51.234;-2.310;2022-10-19T20:09:05;10.77;;;5.57;;
65086;SDS011;52094;51.234;-2.310;2022-10-19T20:12:48;10.35;;;6.25;;
65086;SDS011;52094;51.234;-2.310;2022-10-19T20:16:30;11.20;;;6.55;;
65086;SDS011;52094;51.234;-2.310;2022-10-19T20:20:14;11.90;;;6.72;;
65086;SDS011;52094;51.234;-2.310;2022-10-19T20:23:59;11.18;;;7.10;;
65086;SDS011;52094;51.234;-2.310;2022-10-19T20:27:42;11.20;;;6.25;;
65086;SDS011;52094;51.234;-2.310;2022-10-19T20:31:24;13.00;;;6.60;;
65086;SDS011;52094;51.234;-2.310;2022-10-19T20:35:06;11.55;;;7.10;;
65086;SDS011;52094;51.234;-2.310;2022-10-19T20:38:49;14.85;;;7.45;;
65086;SDS011;52094;51.234;-2.310;2022-10-19T20:42:33;10.30;;;6.60;;
65086;SDS011;52094;51.234;-2.310;2022-10-19T20:46:20;13.43;;;7.32;;
65086;SDS011;52094;51.234;-2.310;2022-10-19T20:50:05;11.80;;;7.45;;
65086;SDS011;52094;51.234;-2.310;2022-10-19T20:53:48;13.15;;;7.50;;
65086;SDS011;52094;51.234;-2.310;2022-10-19T20:57:31;10.05;;;7.10;;
65086;SDS011;52094;51.234;-2.310;2022-10-19T21:01:14;13.10;;;8.27;;
65086;SDS011;52094;51.234;-2.310;2022-10-19T21:04:58;15.73;;;9.25;;
65086;SDS011;52094;51.234;-2.310;2022-10-19T21:08:40;16.40;;;9.43;;
65086;SDS011;52094;51.234;-2.310;2022-10-19T21:12:23;14.25;;;8.95;;
65086;SDS011;52094;51.234;-2.310;2022-10-19T21:16:16;17.52;;;9.05;;
65086;SDS011;52094;51.234;-2.310;2022-10-19T21:19:59;13.82;;;8.57;;
65086;SDS011;52094;51.234;-2.310;2022-10-19T21:23:41;13.32;;;8.32;;
65086;SDS011;52094;51.234;-2.310;2022-10-19T21:27:24;14.68;;;9.73;;
65086;SDS011;52094;51.234;-2.310;2022-10-19T21:31:07;14.52;;;8.95;;
65086;SDS011;52094;51.234;-2.310;2022-10-19T21:34:50;16.23;;;9.98;;
65086;SDS011;52094;51.234;-2.310;2022-10-19T21:38:32;13.05;;;8.65;;
65086;SDS011;52094;51.234;-2.310;2022-10-19T21:42:14;16.25;;;9.75;;
65086;SDS011;52094;51.234;-2.310;2022-10-19T21:45:56;16.52;;;10.32;;
65086;SDS011;52094;51.234;-2.310;2022-10-19T21:49:42;18.02;;;10.77;;
65086;SDS011;52094;51.234;-2.310;2022-10-19T21:53:24;13.07;;;9.32;;
65086;SDS011;52094;51.234;-2.310;2022-10-19T21:57:06;17.15;;;11.30;;
65086;SDS011;52094;51.234;-2.310;2022-10-19T22:00:49;16.05;;;9.38;;
65086;SDS011;52094;51.234;-2.310;2022-10-19T22:04:31;13.23;;;9.15;;
65086;SDS011;52094;51.234;-2.310;2022-10-19T22:08:13;15.40;;;8.93;;
65086;SDS011;52094;51.234;-2.310;2022-10-19T22:11:55;14.05;;;10.13;;
65086;SDS011;52094;51.234;-2.310;2022-10-19T22:15:37;12.77;;;9.65;;
65086;SDS011;52094;51.234;-2.310;2022-10-19T22:19:20;14.38;;;9.77;;
65086;SDS011;52094;51.234;-2.310;2022-10-19T22:23:03;13.80;;;10.23;;
65086;SDS011;52094;51.234;-2.310;2022-10-19T22:26:47;18.23;;;11.98;;
65086;SDS011;52094;51.234;-2.310;2022-10-19T22:30:31;13.60;;;10.35;;
65086;SDS011;52094;51.234;-2.310;2022-10-19T22:34:14;15.00;;;10.68;;
65086;SDS011;52094;51.234;-2.310;2022-10-19T22:37:57;16.13;;;10.57;;
65086;SDS011;52094;51.234;-2.310;2022-10-19T22:45:59;13.27;;;9.82;;
65086;SDS011;52094;51.234;-2.310;2022-10-19T22:49:41;16.98;;;10.88;;
65086;SDS011;52094;51.234;-2.310;2022-10-19T22:53:23;17.13;;;11.00;;
65086;SDS011;52094;51.234;-2.310;2022-10-19T22:57:06;15.98;;;10.50;;
65086;SDS011;52094;51.234;-2.310;2022-10-19T23:05:03;14.57;;;9.73;;
65086;SDS011;52094;51.234;-2.310;2022-10-19T23:08:45;14.63;;;10.40;;
65086;SDS011;52094;51.234;-2.310;2022-10-19T23:12:28;16.45;;;10.27;;
65086;SDS011;52094;51.234;-2.310;2022-10-19T23:16:10;16.67;;;11.27;;
65086;SDS011;52094;51.234;-2.310;2022-10-19T23:19:53;15.85;;;9.43;;
65086;SDS011;52094;51.234;-2.310;2022-10-19T23:23:35;10.77;;;8.23;;
65086;SDS011;52094;51.234;-2.310;2022-10-19T23:27:17;13.85;;;9.77;;
65086;SDS011;52094;51.234;-2.310;2022-10-19T23:31:05;16.73;;;8.45;;
65086;SDS011;52094;51.234;-2.310;2022-10-19T23:35:10;17.90;;;9.65;;
65086;SDS011;52094;51.234;-2.310;2022-10-19T23:38:53;15.88;;;9.57;;
65086;SDS011;52094;51.234;-2.310;2022-10-19T23:42:36;14.38;;;9.30;;
65086;SDS011;52094;51.234;-2.310;2022-10-19T23:46:18;12.20;;;8.85;;
65086;SDS011;52094;51.234;-2.310;2022-10-19T23:50:01;14.98;;;8.10;;
65086;SDS011;52094;51.234;-2.310;2022-10-19T23:53:44;11.98;;;7.85;;
65086;SDS011;52094;51.234;-2.310;2022-10-19T23:57:27;15.65;;;8.60;;
